sensor_id;sensor_type;location;lat;lon;timestamp;temperature;humidity
73955;DHT22;62306;52.516;13.290;2024-03-02T00:00:58;9.40;99.90
73955;DHT22;62306;52.516;13.290;2024-03-02T00:03:25;8.80;99.90
73955;DHT22;62306;52.516;13.290;2024-03-02T00:05:52;9.40;99.90
73955;DHT22;62306;52.516;13.290;2024-03-02T00:08:23;9.40;99.90
73955;DHT22;62306;52.516;13.290;2024-03-02T00:10:57;9.40;99.90
73955;DHT22;62306;52.516;13.290;2024-03-02T00:13:24;9.50;99.90
73955;DHT22;62306;52.516;13.290;2024-03-02T00:15:53;9.50;99.90
73955;DHT22;62306;52.516;13.290;2024-03-02T00:18:25;9.50;99.90
73955;DHT22;62306;52.516;13.290;2024-03-02T00:20:54;9.50;99.90
73955;DHT22;62306;52.516;13.290;2024-03-02T00:23:22;9.40;99.90
73955;DHT22;62306;52.516;13.290;2024-03-02T00:25:52;9.40;99.90
73955;DHT22;62306;52.516;13.290;2024-03-02T00:28:21;9.40;99.90
73955;DHT22;62306;52.516;13.290;2024-03-02T00:30:58;9.40;99.90
73955;DHT22;62306;52.516;13.290;2024-03-02T00:33:31;9.40;99.90
73955;DHT22;62306;52.516;13.290;2024-03-02T00:35:58;9.40;99.90
73955;DHT22;62306;52.516;13.290;2024-03-02T00:38:26;9.40;99.90
73955;DHT22;62306;52.516;13.290;2024-03-02T00:40:57;9.40;99.90
73955;DHT22;62306;52.516;13.290;2024-03-02T00:43:43;9.40;99.90
73955;DHT22;62306;52.516;13.290;2024-03-02T00:46:15;9.40;99.90
73955;DHT22;62306;52.516;13.290;2024-03-02T00:48:49;9.50;99.90
73955;DHT22;62306;52.516;13.290;2024-03-02T00:51:18;9.50;99.90
73955;DHT22;62306;52.516;13.290;2024-03-02T00:53:45;9.50;99.90
73955;DHT22;62306;52.516;13.290;2024-03-02T00:56:13;9.40;99.90
73955;DHT22;62306;52.516;13.290;2024-03-02T00:58:40;9.40;99.90
73955;DHT22;62306;52.516;13.290;2024-03-02T01:01:07;9.40;99.90
73955;DHT22;62306;52.516;13.290;2024-03-02T01:03:35;9.40;99.90
73955;DHT22;62306;52.516;13.290;2024-03-02T01:06:03;9.30;99.90
73955;DHT22;62306;52.516;13.290;2024-03-02T01:08:30;9.30;99.90
73955;DHT22;62306;52.516;13.290;2024-03-02T01:10:57;9.30;99.90
73955;DHT22;62306;52.516;13.290;2024-03-02T01:13:25;9.40;99.90
73955;DHT22;62306;52.516;13.290;2024-03-02T01:15:52;9.40;99.90
73955;DHT22;62306;52.516;13.290;2024-03-02T01:18:19;9.40;99.90
73955;DHT22;62306;52.516;13.290;2024-03-02T01:20:47;9.40;99.90
73955;DHT22;62306;52.516;13.290;2024-03-02T01:23:17;9.40;99.90
73955;DHT22;62306;52.516;13.290;2024-03-02T01:25:45;9.40;99.90
73955;DHT22;62306;52.516;13.290;2024-03-02T01:28:12;9.40;99.90
73955;DHT22;62306;52.516;13.290;2024-03-02T01:30:40;9.30;99.90
73955;DHT22;62306;52.516;13.290;2024-03-02T01:33:07;9.30;99.90
73955;DHT22;62306;52.516;13.290;2024-03-02T01:35:34;9.30;99.90
73955;DHT22;62306;52.516;13.290;2024-03-02T01:38:01;9.30;99.90
73955;DHT22;62306;52.516;13.290;2024-03-02T01:40:29;9.30;99.90
73955;DHT22;62306;52.516;13.290;2024-03-02T01:42:55;9.20;99.90
73955;DHT22;62306;52.516;13.290;2024-03-02T01:45:23;9.20;99.90
73955;DHT22;62306;52.516;13.290;2024-03-02T01:47:52;9.20;99.90
73955;DHT22;62306;52.516;13.290;2024-03-02T01:50:25;9.20;99.90
73955;DHT22;62306;52.516;13.290;2024-03-02T01:52:53;9.20;99.90
73955;DHT22;62306;52.516;13.290;2024-03-02T01:55:20;9.20;99.90
73955;DHT22;62306;52.516;13.290;2024-03-02T01:57:47;9.10;99.90
73955;DHT22;62306;52.516;13.290;2024-03-02T02:00:15;9.10;99.90
73955;DHT22;62306;52.516;13.290;2024-03-02T02:02:42;9.10;99.90
73955;DHT22;62306;52.516;13.290;2024-03-02T02:05:11;9.20;99.90
73955;DHT22;62306;52.516;13.290;2024-03-02T02:07:38;9.20;99.90
73955;DHT22;62306;52.516;13.290;2024-03-02T02:10:05;9.10;99.90
73955;DHT22;62306;52.516;13.290;2024-03-02T02:12:33;9.10;99.90
73955;DHT22;62306;52.516;13.290;2024-03-02T02:15:00;9.10;99.90
73955;DHT22;62306;52.516;13.290;2024-03-02T02:17:27;9.10;99.90
73955;DHT22;62306;52.516;13.290;2024-03-02T02:19:54;9.00;99.90
73955;DHT22;62306;52.516;13.290;2024-03-02T02:22:22;9.00;99.90
73955;DHT22;62306;52.516;13.290;2024-03-02T02:24:49;9.00;99.90
73955;DHT22;62306;52.516;13.290;2024-03-02T02:27:16;9.10;99.90
73955;DHT22;62306;52.516;13.290;2024-03-02T02:29:43;9.10;99.90
73955;DHT22;62306;52.516;13.290;2024-03-02T02:32:10;9.00;99.90
73955;DHT22;62306;52.516;13.290;2024-03-02T02:34:37;9.00;99.90
73955;DHT22;62306;52.516;13.290;2024-03-02T02:37:04;9.00;99.90
73955;DHT22;62306;52.516;13.290;2024-03-02T02:39:32;9.00;99.90
73955;DHT22;62306;52.516;13.290;2024-03-02T02:41:59;9.10;99.90
73955;DHT22;62306;52.516;13.290;2024-03-02T02:44:26;9.10;99.90
73955;DHT22;62306;52.516;13.290;2024-03-02T02:46:53;9.10;99.90
73955;DHT22;62306;52.516;13.290;2024-03-02T02:49:20;9.20;99.90
73955;DHT22;62306;52.516;13.290;2024-03-02T02:51:47;9.20;99.90
73955;DHT22;62306;52.516;13.290;2024-03-02T02:54:14;9.30;99.90
73955;DHT22;62306;52.516;13.290;2024-03-02T02:56:42;9.30;99.90
73955;DHT22;62306;52.516;13.290;2024-03-02T02:59:09;11.10;99.90
73955;DHT22;62306;52.516;13.290;2024-03-02T03:01:36;9.40;99.90
73955;DHT22;62306;52.516;13.290;2024-03-02T03:04:03;9.40;99.90
73955;DHT22;62306;52.516;13.290;2024-03-02T03:06:30;9.40;99.90
73955;DHT22;62306;52.516;13.290;2024-03-02T03:08:57;9.40;99.90
73955;DHT22;62306;52.516;13.290;2024-03-02T03:11:24;9.40;99.90
73955;DHT22;62306;52.516;13.290;2024-03-02T03:13:53;9.40;99.90
73955;DHT22;62306;52.516;13.290;2024-03-02T03:16:21;9.40;99.90
73955;DHT22;62306;52.516;13.290;2024-03-02T03:18:48;9.30;99.90
73955;DHT22;62306;52.516;13.290;2024-03-02T03:21:17;9.40;99.90
73955;DHT22;62306;52.516;13.290;2024-03-02T03:23:44;9.40;99.90
73955;DHT22;62306;52.516;13.290;2024-03-02T03:26:11;9.30;99.90
73955;DHT22;62306;52.516;13.290;2024-03-02T03:28:38;9.40;99.90
73955;DHT22;62306;52.516;13.290;2024-03-02T03:31:06;9.40;99.90
73955;DHT22;62306;52.516;13.290;2024-03-02T03:33:33;9.40;99.90
73955;DHT22;62306;52.516;13.290;2024-03-02T03:36:01;9.40;99.90
73955;DHT22;62306;52.516;13.290;2024-03-02T03:38:29;9.30;99.90
73955;DHT22;62306;52.516;13.290;2024-03-02T03:40:55;9.30;99.90
73955;DHT22;62306;52.516;13.290;2024-03-02T03:43:22;9.40;99.90
73955;DHT22;62306;52.516;13.290;2024-03-02T03:45:49;9.40;99.90
73955;DHT22;62306;52.516;13.290;2024-03-02T03:48:18;9.50;99.90
73955;DHT22;62306;52.516;13.290;2024-03-02T03:50:45;9.50;99.90
73955;DHT22;62306;52.516;13.290;2024-03-02T03:53:12;9.50;99.90
73955;DHT22;62306;52.516;13.290;2024-03-02T03:55:40;9.50;99.90
73955;DHT22;62306;52.516;13.290;2024-03-02T03:58:07;9.50;99.90
73955;DHT22;62306;52.516;13.290;2024-03-02T04:00:34;9.40;99.90
73955;DHT22;62306;52.516;13.290;2024-03-02T04:03:01;9.40;99.90
73955;DHT22;62306;52.516;13.290;2024-03-02T04:05:29;9.40;99.90
73955;DHT22;62306;52.516;13.290;2024-03-02T04:07:56;9.40;99.90
73955;DHT22;62306;52.516;13.290;2024-03-02T04:10:23;9.40;99.90
73955;DHT22;62306;52.516;13.290;2024-03-02T04:12:51;9.40;99.90
73955;DHT22;62306;52.516;13.290;2024-03-02T04:15:17;9.50;99.90
73955;DHT22;62306;52.516;13.290;2024-03-02T04:17:45;9.40;99.90
73955;DHT22;62306;52.516;13.290;2024-03-02T04:20:12;9.40;99.90
73955;DHT22;62306;52.516;13.290;2024-03-02T04:22:40;9.50;99.90
73955;DHT22;62306;52.516;13.290;2024-03-02T04:25:08;9.50;99.90
73955;DHT22;62306;52.516;13.290;2024-03-02T04:27:35;9.50;99.90
73955;DHT22;62306;52.516;13.290;2024-03-02T04:30:03;9.50;99.90
73955;DHT22;62306;52.516;13.290;2024-03-02T04:32:31;9.50;99.90
73955;DHT22;62306;52.516;13.290;2024-03-02T04:34:58;9.50;99.90
73955;DHT22;62306;52.516;13.290;2024-03-02T04:37:25;9.40;99.90
73955;DHT22;62306;52.516;13.290;2024-03-02T04:39:53;9.40;99.90
73955;DHT22;62306;52.516;13.290;2024-03-02T04:42:20;9.40;99.90
73955;DHT22;62306;52.516;13.290;2024-03-02T04:44:48;9.40;99.90
73955;DHT22;62306;52.516;13.290;2024-03-02T04:47:15;9.40;99.90
73955;DHT22;62306;52.516;13.290;2024-03-02T04:49:41;9.40;99.90
73955;DHT22;62306;52.516;13.290;2024-03-02T04:52:09;9.50;99.90
73955;DHT22;62306;52.516;13.290;2024-03-02T04:54:36;9.50;99.90
73955;DHT22;62306;52.516;13.290;2024-03-02T04:57:24;9.50;99.90
73955;DHT22;62306;52.516;13.290;2024-03-02T04:59:51;9.60;99.90
73955;DHT22;62306;52.516;13.290;2024-03-02T05:02:18;9.60;99.90
73955;DHT22;62306;52.516;13.290;2024-03-02T05:04:45;9.60;99.90
73955;DHT22;62306;52.516;13.290;2024-03-02T05:07:13;9.60;99.90
73955;DHT22;62306;52.516;13.290;2024-03-02T05:09:40;9.70;99.90
73955;DHT22;62306;52.516;13.290;2024-03-02T05:12:08;9.70;99.90
73955;DHT22;62306;52.516;13.290;2024-03-02T05:15:01;9.60;99.90
73955;DHT22;62306;52.516;13.290;2024-03-02T05:17:28;9.60;99.90
73955;DHT22;62306;52.516;13.290;2024-03-02T05:19:55;9.60;99.90
73955;DHT22;62306;52.516;13.290;2024-03-02T05:22:22;9.60;99.90
73955;DHT22;62306;52.516;13.290;2024-03-02T05:24:49;9.60;99.90
73955;DHT22;62306;52.516;13.290;2024-03-02T05:27:16;9.50;99.90
73955;DHT22;62306;52.516;13.290;2024-03-02T05:29:43;9.50;99.90
73955;DHT22;62306;52.516;13.290;2024-03-02T05:32:11;9.60;99.90
73955;DHT22;62306;52.516;13.290;2024-03-02T05:34:38;9.60;99.90
73955;DHT22;62306;52.516;13.290;2024-03-02T05:37:05;9.50;99.90
73955;DHT22;62306;52.516;13.290;2024-03-02T05:39:32;9.50;99.90
73955;DHT22;62306;52.516;13.290;2024-03-02T05:41:59;9.50;99.90
73955;DHT22;62306;52.516;13.290;2024-03-02T05:44:25;9.50;99.90
73955;DHT22;62306;52.516;13.290;2024-03-02T05:46:52;9.50;99.90
73955;DHT22;62306;52.516;13.290;2024-03-02T05:49:21;9.50;99.90
73955;DHT22;62306;52.516;13.290;2024-03-02T05:51:48;9.50;99.90
73955;DHT22;62306;52.516;13.290;2024-03-02T05:54:14;9.50;99.90
73955;DHT22;62306;52.516;13.290;2024-03-02T05:56:41;9.50;99.90
73955;DHT22;62306;52.516;13.290;2024-03-02T05:59:08;9.40;99.90
73955;DHT22;62306;52.516;13.290;2024-03-02T06:01:38;9.40;99.90
73955;DHT22;62306;52.516;13.290;2024-03-02T06:04:05;9.40;99.90
73955;DHT22;62306;52.516;13.290;2024-03-02T06:06:33;9.40;99.90
73955;DHT22;62306;52.516;13.290;2024-03-02T06:09:00;9.40;99.90
73955;DHT22;62306;52.516;13.290;2024-03-02T06:11:28;9.40;99.90
73955;DHT22;62306;52.516;13.290;2024-03-02T06:13:55;9.40;99.90
73955;DHT22;62306;52.516;13.290;2024-03-02T06:16:22;9.40;99.90
73955;DHT22;62306;52.516;13.290;2024-03-02T06:18:49;9.40;99.90
73955;DHT22;62306;52.516;13.290;2024-03-02T06:21:17;9.40;99.90
73955;DHT22;62306;52.516;13.290;2024-03-02T06:23:45;9.40;99.90
73955;DHT22;62306;52.516;13.290;2024-03-02T06:26:13;9.40;99.90
73955;DHT22;62306;52.516;13.290;2024-03-02T06:28:40;9.40;99.90
73955;DHT22;62306;52.516;13.290;2024-03-02T06:31:06;9.50;99.90
73955;DHT22;62306;52.516;13.290;2024-03-02T06:33:33;9.50;99.90
73955;DHT22;62306;52.516;13.290;2024-03-02T06:36:00;9.50;99.90
73955;DHT22;62306;52.516;13.290;2024-03-02T06:38:27;9.60;99.90
73955;DHT22;62306;52.516;13.290;2024-03-02T06:40:56;9.60;99.90
73955;DHT22;62306;52.516;13.290;2024-03-02T06:43:22;9.70;99.90
73955;DHT22;62306;52.516;13.290;2024-03-02T06:45:49;9.70;99.90
73955;DHT22;62306;52.516;13.290;2024-03-02T06:48:16;9.70;99.90
73955;DHT22;62306;52.516;13.290;2024-03-02T06:50:45;9.70;99.90
73955;DHT22;62306;52.516;13.290;2024-03-02T06:53:13;9.70;99.90
73955;DHT22;62306;52.516;13.290;2024-03-02T06:55:43;9.70;99.90
73955;DHT22;62306;52.516;13.290;2024-03-02T06:58:11;9.80;99.90
73955;DHT22;62306;52.516;13.290;2024-03-02T07:00:38;9.80;99.90
73955;DHT22;62306;52.516;13.290;2024-03-02T07:03:05;9.80;99.90
73955;DHT22;62306;52.516;13.290;2024-03-02T07:05:31;9.80;99.90
73955;DHT22;62306;52.516;13.290;2024-03-02T07:07:58;9.80;99.90
73955;DHT22;62306;52.516;13.290;2024-03-02T07:10:27;9.80;99.90
73955;DHT22;62306;52.516;13.290;2024-03-02T07:12:54;9.80;99.90
73955;DHT22;62306;52.516;13.290;2024-03-02T07:15:22;9.80;99.90
73955;DHT22;62306;52.516;13.290;2024-03-02T07:18:08;9.80;99.90
73955;DHT22;62306;52.516;13.290;2024-03-02T07:20:35;9.80;99.90
73955;DHT22;62306;52.516;13.290;2024-03-02T07:23:04;9.80;99.90
73955;DHT22;62306;52.516;13.290;2024-03-02T07:25:31;9.70;99.90
73955;DHT22;62306;52.516;13.290;2024-03-02T07:27:58;9.70;99.90
73955;DHT22;62306;52.516;13.290;2024-03-02T07:30:26;9.80;99.90
73955;DHT22;62306;52.516;13.290;2024-03-02T07:32:53;9.90;99.90
73955;DHT22;62306;52.516;13.290;2024-03-02T07:35:20;9.90;99.90
73955;DHT22;62306;52.516;13.290;2024-03-02T07:37:48;9.90;99.90
73955;DHT22;62306;52.516;13.290;2024-03-02T07:40:15;10.00;99.90
73955;DHT22;62306;52.516;13.290;2024-03-02T07:42:41;10.00;99.90
73955;DHT22;62306;52.516;13.290;2024-03-02T07:45:09;10.10;99.90
73955;DHT22;62306;52.516;13.290;2024-03-02T07:47:37;10.10;99.90
73955;DHT22;62306;52.516;13.290;2024-03-02T07:50:05;10.10;99.90
73955;DHT22;62306;52.516;13.290;2024-03-02T07:52:32;10.10;99.90
73955;DHT22;62306;52.516;13.290;2024-03-02T07:54:59;10.00;99.90
73955;DHT22;62306;52.516;13.290;2024-03-02T07:57:26;10.00;99.90
73955;DHT22;62306;52.516;13.290;2024-03-02T07:59:53;9.90;99.90
73955;DHT22;62306;52.516;13.290;2024-03-02T08:02:20;10.00;99.90
73955;DHT22;62306;52.516;13.290;2024-03-02T08:04:52;9.90;99.90
73955;DHT22;62306;52.516;13.290;2024-03-02T08:07:19;9.80;99.90
73955;DHT22;62306;52.516;13.290;2024-03-02T08:09:46;9.80;99.90
73955;DHT22;62306;52.516;13.290;2024-03-02T08:12:12;9.80;99.90
73955;DHT22;62306;52.516;13.290;2024-03-02T08:14:39;9.70;99.90
73955;DHT22;62306;52.516;13.290;2024-03-02T08:17:06;9.80;99.90
73955;DHT22;62306;52.516;13.290;2024-03-02T08:19:35;9.80;99.90
73955;DHT22;62306;52.516;13.290;2024-03-02T08:22:04;9.90;99.90
73955;DHT22;62306;52.516;13.290;2024-03-02T08:24:31;10.00;99.90
73955;DHT22;62306;52.516;13.290;2024-03-02T08:26:59;10.10;99.90
73955;DHT22;62306;52.516;13.290;2024-03-02T08:29:26;10.10;99.90
73955;DHT22;62306;52.516;13.290;2024-03-02T08:31:53;9.90;99.90
73955;DHT22;62306;52.516;13.290;2024-03-02T08:34:20;9.90;99.90
73955;DHT22;62306;52.516;13.290;2024-03-02T08:36:47;9.90;99.90
73955;DHT22;62306;52.516;13.290;2024-03-02T08:39:15;10.00;99.90
73955;DHT22;62306;52.516;13.290;2024-03-02T08:41:44;10.00;99.90
73955;DHT22;62306;52.516;13.290;2024-03-02T08:44:12;9.90;99.90
73955;DHT22;62306;52.516;13.290;2024-03-02T08:46:39;9.90;99.90
73955;DHT22;62306;52.516;13.290;2024-03-02T08:49:06;9.90;99.90
73955;DHT22;62306;52.516;13.290;2024-03-02T08:51:33;9.90;99.90
73955;DHT22;62306;52.516;13.290;2024-03-02T08:54:00;10.00;99.90
73955;DHT22;62306;52.516;13.290;2024-03-02T08:56:28;10.10;99.90
73955;DHT22;62306;52.516;13.290;2024-03-02T08:58:55;10.00;99.90
73955;DHT22;62306;52.516;13.290;2024-03-02T09:01:22;10.00;99.90
73955;DHT22;62306;52.516;13.290;2024-03-02T09:03:49;10.10;99.90
73955;DHT22;62306;52.516;13.290;2024-03-02T09:06:16;10.00;99.90
73955;DHT22;62306;52.516;13.290;2024-03-02T09:08:45;10.00;99.90
73955;DHT22;62306;52.516;13.290;2024-03-02T09:11:12;10.00;99.90
73955;DHT22;62306;52.516;13.290;2024-03-02T09:13:40;10.00;99.90
73955;DHT22;62306;52.516;13.290;2024-03-02T09:16:08;10.00;99.90
73955;DHT22;62306;52.516;13.290;2024-03-02T09:18:36;10.00;99.90
73955;DHT22;62306;52.516;13.290;2024-03-02T09:21:03;10.10;99.90
73955;DHT22;62306;52.516;13.290;2024-03-02T09:23:30;10.20;99.90
73955;DHT22;62306;52.516;13.290;2024-03-02T09:25:57;10.20;99.90
73955;DHT22;62306;52.516;13.290;2024-03-02T09:28:24;10.20;99.90
73955;DHT22;62306;52.516;13.290;2024-03-02T09:30:51;10.20;99.90
73955;DHT22;62306;52.516;13.290;2024-03-02T09:33:18;10.10;99.90
73955;DHT22;62306;52.516;13.290;2024-03-02T09:35:45;10.00;99.90
73955;DHT22;62306;52.516;13.290;2024-03-02T09:38:12;10.00;99.90
73955;DHT22;62306;52.516;13.290;2024-03-02T09:40:39;10.20;99.90
73955;DHT22;62306;52.516;13.290;2024-03-02T09:43:07;10.20;99.90
73955;DHT22;62306;52.516;13.290;2024-03-02T09:45:34;10.20;99.90
73955;DHT22;62306;52.516;13.290;2024-03-02T09:48:03;10.40;99.90
73955;DHT22;62306;52.516;13.290;2024-03-02T09:50:30;10.60;99.90
73955;DHT22;62306;52.516;13.290;2024-03-02T09:52:57;10.70;99.90
73955;DHT22;62306;52.516;13.290;2024-03-02T09:55:25;10.70;99.90
73955;DHT22;62306;52.516;13.290;2024-03-02T09:57:52;10.80;99.90
73955;DHT22;62306;52.516;13.290;2024-03-02T10:00:19;10.90;99.90
73955;DHT22;62306;52.516;13.290;2024-03-02T10:02:46;10.90;99.90
73955;DHT22;62306;52.516;13.290;2024-03-02T10:05:23;11.00;99.90
73955;DHT22;62306;52.516;13.290;2024-03-02T10:07:58;9.80;99.90
73955;DHT22;62306;52.516;13.290;2024-03-02T10:10:34;11.50;99.90
73955;DHT22;62306;52.516;13.290;2024-03-02T10:13:06;11.50;99.90
73955;DHT22;62306;52.516;13.290;2024-03-02T10:15:34;11.60;99.90
73955;DHT22;62306;52.516;13.290;2024-03-02T10:18:01;11.90;99.90
73955;DHT22;62306;52.516;13.290;2024-03-02T10:20:30;12.00;99.90
73955;DHT22;62306;52.516;13.290;2024-03-02T10:23:10;12.10;99.90
73955;DHT22;62306;52.516;13.290;2024-03-02T10:25:37;12.20;99.90
73955;DHT22;62306;52.516;13.290;2024-03-02T10:28:04;12.20;99.90
73955;DHT22;62306;52.516;13.290;2024-03-02T10:30:32;12.00;99.90
73955;DHT22;62306;52.516;13.290;2024-03-02T10:33:00;12.00;99.90
73955;DHT22;62306;52.516;13.290;2024-03-02T10:35:27;11.90;99.90
73955;DHT22;62306;52.516;13.290;2024-03-02T10:37:55;11.90;99.90
73955;DHT22;62306;52.516;13.290;2024-03-02T10:40:23;12.00;99.90
73955;DHT22;62306;52.516;13.290;2024-03-02T10:42:50;12.20;99.90
73955;DHT22;62306;52.516;13.290;2024-03-02T10:45:20;12.10;99.90
73955;DHT22;62306;52.516;13.290;2024-03-02T10:47:48;12.00;99.90
73955;DHT22;62306;52.516;13.290;2024-03-02T10:50:16;12.30;99.90
73955;DHT22;62306;52.516;13.290;2024-03-02T10:52:44;12.30;99.90
73955;DHT22;62306;52.516;13.290;2024-03-02T10:55:13;12.30;99.90
73955;DHT22;62306;52.516;13.290;2024-03-02T10:57:50;12.20;99.90
73955;DHT22;62306;52.516;13.290;2024-03-02T11:00:20;12.10;99.90
73955;DHT22;62306;52.516;13.290;2024-03-02T11:02:52;12.00;99.90
73955;DHT22;62306;52.516;13.290;2024-03-02T11:05:27;12.10;99.90
73955;DHT22;62306;52.516;13.290;2024-03-02T11:08:00;12.20;99.90
73955;DHT22;62306;52.516;13.290;2024-03-02T11:10:34;12.40;99.90
73955;DHT22;62306;52.516;13.290;2024-03-02T11:13:05;12.70;99.90
73955;DHT22;62306;52.516;13.290;2024-03-02T11:15:35;12.70;99.90
73955;DHT22;62306;52.516;13.290;2024-03-02T11:18:04;12.70;99.90
73955;DHT22;62306;52.516;13.290;2024-03-02T11:20:36;12.90;99.90
73955;DHT22;62306;52.516;13.290;2024-03-02T11:23:05;13.10;99.90
73955;DHT22;62306;52.516;13.290;2024-03-02T11:25:34;13.10;99.90
73955;DHT22;62306;52.516;13.290;2024-03-02T11:28:03;13.10;99.90
73955;DHT22;62306;52.516;13.290;2024-03-02T11:30:49;13.20;99.90
73955;DHT22;62306;52.516;13.290;2024-03-02T11:33:26;13.50;99.90
73955;DHT22;62306;52.516;13.290;2024-03-02T11:35:56;13.60;99.90
73955;DHT22;62306;52.516;13.290;2024-03-02T11:38:28;13.70;99.90
73955;DHT22;62306;52.516;13.290;2024-03-02T11:40:56;13.90;99.90
73955;DHT22;62306;52.516;13.290;2024-03-02T11:43:25;14.00;99.90
73955;DHT22;62306;52.516;13.290;2024-03-02T11:45:57;13.90;99.90
73955;DHT22;62306;52.516;13.290;2024-03-02T11:48:24;13.70;99.90
73955;DHT22;62306;52.516;13.290;2024-03-02T11:50:52;13.50;99.90
73955;DHT22;62306;52.516;13.290;2024-03-02T11:53:20;13.30;99.90
73955;DHT22;62306;52.516;13.290;2024-03-02T11:55:47;13.20;99.90
73955;DHT22;62306;52.516;13.290;2024-03-02T11:58:17;13.20;99.90
73955;DHT22;62306;52.516;13.290;2024-03-02T12:00:46;13.30;99.90
73955;DHT22;62306;52.516;13.290;2024-03-02T12:03:13;13.50;99.90
73955;DHT22;62306;52.516;13.290;2024-03-02T12:05:40;13.50;99.90
73955;DHT22;62306;52.516;13.290;2024-03-02T12:08:08;13.50;99.90
73955;DHT22;62306;52.516;13.290;2024-03-02T12:10:36;13.50;99.90
73955;DHT22;62306;52.516;13.290;2024-03-02T12:13:05;13.40;99.90
73955;DHT22;62306;52.516;13.290;2024-03-02T12:15:35;13.30;99.90
73955;DHT22;62306;52.516;13.290;2024-03-02T12:18:03;13.30;99.90
73955;DHT22;62306;52.516;13.290;2024-03-02T12:20:31;13.50;99.90
73955;DHT22;62306;52.516;13.290;2024-03-02T12:23:00;13.70;99.90
73955;DHT22;62306;52.516;13.290;2024-03-02T12:25:27;13.80;99.90
73955;DHT22;62306;52.516;13.290;2024-03-02T12:27:56;14.00;99.90
73955;DHT22;62306;52.516;13.290;2024-03-02T12:30:24;14.10;99.90
73955;DHT22;62306;52.516;13.290;2024-03-02T12:32:52;14.20;99.90
73955;DHT22;62306;52.516;13.290;2024-03-02T12:35:19;14.30;99.90
73955;DHT22;62306;52.516;13.290;2024-03-02T12:37:47;14.30;99.90
73955;DHT22;62306;52.516;13.290;2024-03-02T12:40:16;14.40;99.90
73955;DHT22;62306;52.516;13.290;2024-03-02T12:42:44;14.60;99.90
73955;DHT22;62306;52.516;13.290;2024-03-02T12:45:12;14.60;99.90
73955;DHT22;62306;52.516;13.290;2024-03-02T12:47:40;14.50;99.90
73955;DHT22;62306;52.516;13.290;2024-03-02T12:50:10;14.90;99.90
73955;DHT22;62306;52.516;13.290;2024-03-02T12:52:38;15.00;99.90
73955;DHT22;62306;52.516;13.290;2024-03-02T12:55:05;14.90;99.90
73955;DHT22;62306;52.516;13.290;2024-03-02T12:57:33;14.90;99.90
73955;DHT22;62306;52.516;13.290;2024-03-02T13:00:01;14.90;99.90
73955;DHT22;62306;52.516;13.290;2024-03-02T13:02:35;14.80;99.90
73955;DHT22;62306;52.516;13.290;2024-03-02T13:05:02;14.70;99.90
73955;DHT22;62306;52.516;13.290;2024-03-02T13:07:31;14.50;99.90
73955;DHT22;62306;52.516;13.290;2024-03-02T13:09:59;14.40;99.90
73955;DHT22;62306;52.516;13.290;2024-03-02T13:12:27;14.50;99.90
73955;DHT22;62306;52.516;13.290;2024-03-02T13:14:54;14.40;99.90
73955;DHT22;62306;52.516;13.290;2024-03-02T13:17:21;14.30;99.90
73955;DHT22;62306;52.516;13.290;2024-03-02T13:19:52;14.20;99.90
73955;DHT22;62306;52.516;13.290;2024-03-02T13:22:19;14.10;99.90
73955;DHT22;62306;52.516;13.290;2024-03-02T13:24:48;13.90;99.90
73955;DHT22;62306;52.516;13.290;2024-03-02T13:27:15;13.90;99.90
73955;DHT22;62306;52.516;13.290;2024-03-02T13:29:45;13.80;99.90
73955;DHT22;62306;52.516;13.290;2024-03-02T13:32:12;13.80;99.90
73955;DHT22;62306;52.516;13.290;2024-03-02T13:34:39;13.90;99.90
73955;DHT22;62306;52.516;13.290;2024-03-02T13:37:06;14.00;99.90
73955;DHT22;62306;52.516;13.290;2024-03-02T13:39:33;14.10;99.90
73955;DHT22;62306;52.516;13.290;2024-03-02T13:42:07;14.20;99.90
73955;DHT22;62306;52.516;13.290;2024-03-02T13:44:34;14.30;99.90
73955;DHT22;62306;52.516;13.290;2024-03-02T13:47:01;14.40;99.90
73955;DHT22;62306;52.516;13.290;2024-03-02T13:49:28;14.30;99.90
73955;DHT22;62306;52.516;13.290;2024-03-02T13:51:59;14.50;99.90
73955;DHT22;62306;52.516;13.290;2024-03-02T13:54:28;14.70;99.90
73955;DHT22;62306;52.516;13.290;2024-03-02T13:56:55;14.90;99.90
73955;DHT22;62306;52.516;13.290;2024-03-02T13:59:25;14.90;99.90
73955;DHT22;62306;52.516;13.290;2024-03-02T14:01:52;14.60;99.90
73955;DHT22;62306;52.516;13.290;2024-03-02T14:04:19;14.60;99.90
73955;DHT22;62306;52.516;13.290;2024-03-02T14:06:46;14.80;99.90
73955;DHT22;62306;52.516;13.290;2024-03-02T14:09:13;14.80;99.90
73955;DHT22;62306;52.516;13.290;2024-03-02T14:11:40;14.90;99.90
73955;DHT22;62306;52.516;13.290;2024-03-02T14:14:07;15.10;99.90
73955;DHT22;62306;52.516;13.290;2024-03-02T14:16:35;15.10;99.90
73955;DHT22;62306;52.516;13.290;2024-03-02T14:19:02;14.80;99.90
73955;DHT22;62306;52.516;13.290;2024-03-02T14:21:30;14.60;99.90
73955;DHT22;62306;52.516;13.290;2024-03-02T14:23:57;14.40;99.90
73955;DHT22;62306;52.516;13.290;2024-03-02T14:26:24;14.50;99.90
73955;DHT22;62306;52.516;13.290;2024-03-02T14:28:53;14.50;99.90
73955;DHT22;62306;52.516;13.290;2024-03-02T14:31:20;14.40;99.90
73955;DHT22;62306;52.516;13.290;2024-03-02T14:33:48;14.40;99.90
73955;DHT22;62306;52.516;13.290;2024-03-02T14:36:15;14.20;99.90
73955;DHT22;62306;52.516;13.290;2024-03-02T14:38:42;14.00;99.90
73955;DHT22;62306;52.516;13.290;2024-03-02T14:41:09;14.10;99.90
73955;DHT22;62306;52.516;13.290;2024-03-02T14:43:36;14.10;99.90
73955;DHT22;62306;52.516;13.290;2024-03-02T14:46:03;14.20;99.90
73955;DHT22;62306;52.516;13.290;2024-03-02T14:48:31;14.10;99.90
73955;DHT22;62306;52.516;13.290;2024-03-02T14:50:59;14.00;99.90
73955;DHT22;62306;52.516;13.290;2024-03-02T14:53:26;13.80;99.90
73955;DHT22;62306;52.516;13.290;2024-03-02T14:55:53;13.70;99.90
73955;DHT22;62306;52.516;13.290;2024-03-02T14:58:20;13.60;99.90
73955;DHT22;62306;52.516;13.290;2024-03-02T15:00:47;13.40;99.90
73955;DHT22;62306;52.516;13.290;2024-03-02T15:03:14;13.50;99.90
73955;DHT22;62306;52.516;13.290;2024-03-02T15:05:42;13.40;99.90
73955;DHT22;62306;52.516;13.290;2024-03-02T15:08:10;13.30;99.90
73955;DHT22;62306;52.516;13.290;2024-03-02T15:10:37;13.30;99.90
73955;DHT22;62306;52.516;13.290;2024-03-02T15:13:04;13.30;99.90
73955;DHT22;62306;52.516;13.290;2024-03-02T15:15:31;13.30;99.90
73955;DHT22;62306;52.516;13.290;2024-03-02T15:17:58;13.30;99.90
73955;DHT22;62306;52.516;13.290;2024-03-02T15:20:25;13.30;99.90
73955;DHT22;62306;52.516;13.290;2024-03-02T15:22:52;13.40;99.90
73955;DHT22;62306;52.516;13.290;2024-03-02T15:25:19;13.40;99.90
73955;DHT22;62306;52.516;13.290;2024-03-02T15:27:46;13.40;99.90
73955;DHT22;62306;52.516;13.290;2024-03-02T15:30:13;13.50;99.90